sensor_id;sensor_type;location;lat;lon;timestamp;P1;durP1;ratioP1;P2;durP2;ratioP2
22357;SDS011;11346;50.150;8.150;2023-07-24T00:01:54;2.73;;;2.00;;
22357;SDS011;11346;50.150;8.150;2023-07-24T00:04:21;1.97;;;1.80;;
22357;SDS011;11346;50.150;8.150;2023-07-24T00:06:48;2.07;;;1.90;;
22357;SDS011;11346;50.150;8.150;2023-07-24T00:09:16;3.27;;;2.10;;
22357;SDS011;11346;50.150;8.150;2023-07-24T00:11:43;2.30;;;1.87;;
22357;SDS011;11346;50.150;8.150;2023-07-24T00:14:11;2.60;;;1.90;;
22357;SDS011;11346;50.150;8.150;2023-07-24T00:16:38;2.40;;;2.20;;
22357;SDS011;11346;50.150;8.150;2023-07-24T00:19:06;5.17;;;2.10;;
22357;SDS011;11346;50.150;8.150;2023-07-24T00:21:33;4.53;;;1.87;;
22357;SDS011;11346;50.150;8.150;2023-07-24T00:24:00;3.80;;;1.97;;
22357;SDS011;11346;50.150;8.150;2023-07-24T00:26:27;4.20;;;2.07;;
22357;SDS011;11346;50.150;8.150;2023-07-24T00:28:54;2.87;;;2.00;;
22357;SDS011;11346;50.150;8.150;2023-07-24T00:31:23;2.53;;;1.97;;
22357;SDS011;11346;50.150;8.150;2023-07-24T00:33:50;2.53;;;2.30;;
22357;SDS011;11346;50.150;8.150;2023-07-24T00:36:17;5.10;;;2.10;;
22357;SDS011;11346;50.150;8.150;2023-07-24T00:38:44;2.53;;;2.10;;
22357;SDS011;11346;50.150;8.150;2023-07-24T00:41:11;3.10;;;2.40;;
22357;SDS011;11346;50.150;8.150;2023-07-24T00:43:39;3.53;;;2.03;;
22357;SDS011;11346;50.150;8.150;2023-07-24T00:46:06;2.60;;;2.00;;
22357;SDS011;11346;50.150;8.150;2023-07-24T00:48:34;3.30;;;2.10;;
22357;SDS011;11346;50.150;8.150;2023-07-24T00:51:02;2.20;;;2.10;;
22357;SDS011;11346;50.150;8.150;2023-07-24T00:53:29;2.10;;;1.90;;
22357;SDS011;11346;50.150;8.150;2023-07-24T00:55:56;2.93;;;2.00;;
22357;SDS011;11346;50.150;8.150;2023-07-24T00:58:23;3.00;;;2.03;;
22357;SDS011;11346;50.150;8.150;2023-07-24T01:00:51;3.80;;;2.40;;
22357;SDS011;11346;50.150;8.150;2023-07-24T01:03:18;2.63;;;2.10;;
22357;SDS011;11346;50.150;8.150;2023-07-24T01:05:47;4.27;;;3.10;;
22357;SDS011;11346;50.150;8.150;2023-07-24T01:08:14;2.27;;;2.07;;
22357;SDS011;11346;50.150;8.150;2023-07-24T01:10:41;2.40;;;2.20;;
22357;SDS011;11346;50.150;8.150;2023-07-24T01:13:10;3.13;;;2.40;;
22357;SDS011;11346;50.150;8.150;2023-07-24T01:15:41;3.20;;;2.83;;
22357;SDS011;11346;50.150;8.150;2023-07-24T01:18:09;2.30;;;2.10;;
22357;SDS011;11346;50.150;8.150;2023-07-24T01:20:37;3.90;;;2.30;;
22357;SDS011;11346;50.150;8.150;2023-07-24T01:23:11;2.63;;;2.20;;
22357;SDS011;11346;50.150;8.150;2023-07-24T01:25:52;2.83;;;2.23;;
22357;SDS011;11346;50.150;8.150;2023-07-24T01:28:20;2.87;;;2.40;;
22357;SDS011;11346;50.150;8.150;2023-07-24T01:30:47;2.93;;;1.83;;
22357;SDS011;11346;50.150;8.150;2023-07-24T01:33:14;6.13;;;2.50;;
22357;SDS011;11346;50.150;8.150;2023-07-24T01:35:41;4.70;;;2.17;;
22357;SDS011;11346;50.150;8.150;2023-07-24T01:38:09;2.87;;;2.20;;
22357;SDS011;11346;50.150;8.150;2023-07-24T01:40:36;4.37;;;2.33;;
22357;SDS011;11346;50.150;8.150;2023-07-24T01:43:06;2.90;;;2.43;;
22357;SDS011;11346;50.150;8.150;2023-07-24T01:45:33;3.23;;;2.00;;
22357;SDS011;11346;50.150;8.150;2023-07-24T01:48:01;3.37;;;2.30;;
22357;SDS011;11346;50.150;8.150;2023-07-24T01:50:28;2.50;;;1.90;;
22357;SDS011;11346;50.150;8.150;2023-07-24T01:52:55;2.10;;;1.90;;
22357;SDS011;11346;50.150;8.150;2023-07-24T01:55:22;2.77;;;2.23;;
22357;SDS011;11346;50.150;8.150;2023-07-24T01:57:49;3.33;;;2.20;;
22357;SDS011;11346;50.150;8.150;2023-07-24T02:00:18;2.53;;;2.27;;
22357;SDS011;11346;50.150;8.150;2023-07-24T02:02:45;3.27;;;2.03;;
22357;SDS011;11346;50.150;8.150;2023-07-24T02:05:12;2.33;;;2.07;;
22357;SDS011;11346;50.150;8.150;2023-07-24T02:07:39;11.33;;;2.70;;
22357;SDS011;11346;50.150;8.150;2023-07-24T02:10:06;3.10;;;2.10;;
22357;SDS011;11346;50.150;8.150;2023-07-24T02:12:33;4.73;;;2.20;;
22357;SDS011;11346;50.150;8.150;2023-07-24T02:15:01;6.57;;;2.53;;
22357;SDS011;11346;50.150;8.150;2023-07-24T02:17:29;10.47;;;2.50;;
22357;SDS011;11346;50.150;8.150;2023-07-24T02:19:56;3.90;;;2.37;;
22357;SDS011;11346;50.150;8.150;2023-07-24T02:22:23;4.33;;;2.30;;
22357;SDS011;11346;50.150;8.150;2023-07-24T02:24:50;3.23;;;2.50;;
22357;SDS011;11346;50.150;8.150;2023-07-24T02:27:24;4.00;;;2.13;;
22357;SDS011;11346;50.150;8.150;2023-07-24T02:29:51;3.33;;;2.43;;
22357;SDS011;11346;50.150;8.150;2023-07-24T02:32:18;2.57;;;2.27;;
22357;SDS011;11346;50.150;8.150;2023-07-24T02:34:48;5.57;;;2.60;;
22357;SDS011;11346;50.150;8.150;2023-07-24T02:37:15;5.37;;;2.50;;
22357;SDS011;11346;50.150;8.150;2023-07-24T02:39:42;2.63;;;2.30;;
22357;SDS011;11346;50.150;8.150;2023-07-24T02:42:10;5.87;;;2.47;;
22357;SDS011;11346;50.150;8.150;2023-07-24T02:44:37;2.70;;;2.20;;
22357;SDS011;11346;50.150;8.150;2023-07-24T02:47:04;4.07;;;2.17;;
22357;SDS011;11346;50.150;8.150;2023-07-24T02:49:32;3.00;;;2.70;;
22357;SDS011;11346;50.150;8.150;2023-07-24T02:52:01;3.37;;;2.57;;
22357;SDS011;11346;50.150;8.150;2023-07-24T02:54:28;6.00;;;2.70;;
22357;SDS011;11346;50.150;8.150;2023-07-24T02:56:55;4.10;;;2.67;;
22357;SDS011;11346;50.150;8.150;2023-07-24T02:59:23;6.30;;;2.57;;
22357;SDS011;11346;50.150;8.150;2023-07-24T03:01:50;6.70;;;3.20;;
22357;SDS011;11346;50.150;8.150;2023-07-24T03:04:17;3.60;;;2.63;;
22357;SDS011;11346;50.150;8.150;2023-07-24T03:06:44;4.03;;;2.60;;
22357;SDS011;11346;50.150;8.150;2023-07-24T03:09:13;4.20;;;2.53;;
22357;SDS011;11346;50.150;8.150;2023-07-24T03:11:40;3.30;;;2.43;;
22357;SDS011;11346;50.150;8.150;2023-07-24T03:14:07;6.73;;;2.90;;
22357;SDS011;11346;50.150;8.150;2023-07-24T03:16:34;6.70;;;2.93;;
22357;SDS011;11346;50.150;8.150;2023-07-24T03:19:01;2.83;;;2.53;;
22357;SDS011;11346;50.150;8.150;2023-07-24T03:21:28;4.23;;;2.67;;
22357;SDS011;11346;50.150;8.150;2023-07-24T03:23:55;3.70;;;2.80;;
22357;SDS011;11346;50.150;8.150;2023-07-24T03:26:23;6.60;;;3.53;;
22357;SDS011;11346;50.150;8.150;2023-07-24T03:28:50;3.27;;;2.70;;
22357;SDS011;11346;50.150;8.150;2023-07-24T03:31:17;3.53;;;2.80;;
22357;SDS011;11346;50.150;8.150;2023-07-24T03:33:44;4.40;;;2.70;;
22357;SDS011;11346;50.150;8.150;2023-07-24T03:36:11;4.80;;;2.70;;
22357;SDS011;11346;50.150;8.150;2023-07-24T03:38:38;3.53;;;2.70;;
22357;SDS011;11346;50.150;8.150;2023-07-24T03:41:05;3.43;;;2.37;;
22357;SDS011;11346;50.150;8.150;2023-07-24T03:43:34;4.63;;;2.70;;
22357;SDS011;11346;50.150;8.150;2023-07-24T03:46:01;3.67;;;2.90;;
22357;SDS011;11346;50.150;8.150;2023-07-24T03:48:28;6.80;;;3.20;;
22357;SDS011;11346;50.150;8.150;2023-07-24T03:50:57;4.93;;;2.90;;
22357;SDS011;11346;50.150;8.150;2023-07-24T03:53:24;4.63;;;3.00;;
22357;SDS011;11346;50.150;8.150;2023-07-24T03:55:52;5.00;;;2.63;;
22357;SDS011;11346;50.150;8.150;2023-07-24T03:58:19;7.20;;;3.30;;
22357;SDS011;11346;50.150;8.150;2023-07-24T04:00:47;9.60;;;3.10;;
22357;SDS011;11346;50.150;8.150;2023-07-24T04:03:15;5.73;;;2.60;;
22357;SDS011;11346;50.150;8.150;2023-07-24T04:05:42;4.33;;;2.50;;
22357;SDS011;11346;50.150;8.150;2023-07-24T04:08:09;3.53;;;2.87;;
22357;SDS011;11346;50.150;8.150;2023-07-24T04:10:36;4.23;;;2.67;;
22357;SDS011;11346;50.150;8.150;2023-07-24T04:13:03;4.83;;;3.10;;
22357;SDS011;11346;50.150;8.150;2023-07-24T04:15:30;4.23;;;2.80;;
22357;SDS011;11346;50.150;8.150;2023-07-24T04:17:59;4.20;;;2.70;;
22357;SDS011;11346;50.150;8.150;2023-07-24T04:20:26;5.17;;;2.90;;
22357;SDS011;11346;50.150;8.150;2023-07-24T04:22:53;3.80;;;2.50;;
22357;SDS011;11346;50.150;8.150;2023-07-24T04:25:20;4.07;;;2.70;;
22357;SDS011;11346;50.150;8.150;2023-07-24T04:27:47;4.63;;;3.00;;
22357;SDS011;11346;50.150;8.150;2023-07-24T04:30:14;4.57;;;3.03;;
22357;SDS011;11346;50.150;8.150;2023-07-24T04:32:41;3.40;;;2.60;;
22357;SDS011;11346;50.150;8.150;2023-07-24T04:35:10;4.97;;;3.03;;
22357;SDS011;11346;50.150;8.150;2023-07-24T04:37:37;3.80;;;3.00;;
22357;SDS011;11346;50.150;8.150;2023-07-24T04:40:04;5.20;;;2.70;;
22357;SDS011;11346;50.150;8.150;2023-07-24T04:42:31;4.80;;;2.93;;
22357;SDS011;11346;50.150;8.150;2023-07-24T04:44:58;5.23;;;2.73;;
22357;SDS011;11346;50.150;8.150;2023-07-24T04:47:25;4.57;;;2.80;;
22357;SDS011;11346;50.150;8.150;2023-07-24T04:49:52;2.80;;;2.57;;
22357;SDS011;11346;50.150;8.150;2023-07-24T04:52:21;2.80;;;2.50;;
22357;SDS011;11346;50.150;8.150;2023-07-24T04:54:48;5.37;;;2.67;;
22357;SDS011;11346;50.150;8.150;2023-07-24T04:57:15;4.53;;;2.50;;
22357;SDS011;11346;50.150;8.150;2023-07-24T04:59:42;5.10;;;2.63;;
22357;SDS011;11346;50.150;8.150;2023-07-24T05:02:09;3.40;;;2.80;;
22357;SDS011;11346;50.150;8.150;2023-07-24T05:04:36;3.37;;;2.70;;
22357;SDS011;11346;50.150;8.150;2023-07-24T05:07:03;3.80;;;2.80;;
22357;SDS011;11346;50.150;8.150;2023-07-24T05:09:32;3.70;;;2.70;;
22357;SDS011;11346;50.150;8.150;2023-07-24T05:11:59;2.73;;;2.50;;
22357;SDS011;11346;50.150;8.150;2023-07-24T05:14:26;4.17;;;2.57;;
22357;SDS011;11346;50.150;8.150;2023-07-24T05:16:53;4.80;;;3.00;;
22357;SDS011;11346;50.150;8.150;2023-07-24T05:19:20;4.90;;;2.80;;
22357;SDS011;11346;50.150;8.150;2023-07-24T05:21:47;4.97;;;3.17;;
22357;SDS011;11346;50.150;8.150;2023-07-24T05:24:14;4.30;;;2.93;;
22357;SDS011;11346;50.150;8.150;2023-07-24T05:26:42;4.33;;;3.07;;
22357;SDS011;11346;50.150;8.150;2023-07-24T05:29:09;3.50;;;2.83;;
22357;SDS011;11346;50.150;8.150;2023-07-24T05:31:36;3.90;;;2.83;;
22357;SDS011;11346;50.150;8.150;2023-07-24T05:34:03;3.63;;;2.70;;
22357;SDS011;11346;50.150;8.150;2023-07-24T05:36:30;4.07;;;3.03;;
22357;SDS011;11346;50.150;8.150;2023-07-24T05:38:57;4.70;;;3.03;;
22357;SDS011;11346;50.150;8.150;2023-07-24T05:41:24;3.50;;;2.80;;
22357;SDS011;11346;50.150;8.150;2023-07-24T05:43:53;3.70;;;2.90;;
22357;SDS011;11346;50.150;8.150;2023-07-24T05:46:20;3.37;;;2.90;;
22357;SDS011;11346;50.150;8.150;2023-07-24T05:48:47;4.17;;;2.90;;
22357;SDS011;11346;50.150;8.150;2023-07-24T05:51:14;5.50;;;2.97;;
22357;SDS011;11346;50.150;8.150;2023-07-24T05:53:41;4.03;;;3.27;;
22357;SDS011;11346;50.150;8.150;2023-07-24T05:56:08;3.60;;;2.93;;
22357;SDS011;11346;50.150;8.150;2023-07-24T05:58:35;4.37;;;3.03;;
22357;SDS011;11346;50.150;8.150;2023-07-24T06:01:04;4.33;;;2.93;;
22357;SDS011;11346;50.150;8.150;2023-07-24T06:03:33;3.77;;;3.00;;
22357;SDS011;11346;50.150;8.150;2023-07-24T06:06:00;5.20;;;3.13;;
22357;SDS011;11346;50.150;8.150;2023-07-24T06:08:27;3.60;;;2.97;;
22357;SDS011;11346;50.150;8.150;2023-07-24T06:10:54;4.60;;;3.10;;
22357;SDS011;11346;50.150;8.150;2023-07-24T06:13:21;4.07;;;3.10;;
22357;SDS011;11346;50.150;8.150;2023-07-24T06:15:48;6.33;;;2.80;;
22357;SDS011;11346;50.150;8.150;2023-07-24T06:18:17;5.13;;;2.97;;
22357;SDS011;11346;50.150;8.150;2023-07-24T06:20:44;4.30;;;3.40;;
22357;SDS011;11346;50.150;8.150;2023-07-24T06:23:11;4.37;;;3.07;;
22357;SDS011;11346;50.150;8.150;2023-07-24T06:25:38;5.27;;;2.90;;
22357;SDS011;11346;50.150;8.150;2023-07-24T06:28:05;4.10;;;3.23;;
22357;SDS011;11346;50.150;8.150;2023-07-24T06:30:32;5.07;;;3.07;;
22357;SDS011;11346;50.150;8.150;2023-07-24T06:32:59;4.03;;;3.10;;
22357;SDS011;11346;50.150;8.150;2023-07-24T06:35:27;3.97;;;3.23;;
22357;SDS011;11346;50.150;8.150;2023-07-24T06:37:54;3.87;;;3.23;;
22357;SDS011;11346;50.150;8.150;2023-07-24T06:40:21;4.93;;;3.30;;
22357;SDS011;11346;50.150;8.150;2023-07-24T06:42:48;7.83;;;3.47;;
22357;SDS011;11346;50.150;8.150;2023-07-24T06:45:16;4.53;;;2.97;;
22357;SDS011;11346;50.150;8.150;2023-07-24T06:47:43;6.50;;;3.37;;
22357;SDS011;11346;50.150;8.150;2023-07-24T06:50:10;3.27;;;2.80;;
22357;SDS011;11346;50.150;8.150;2023-07-24T06:52:38;5.43;;;3.20;;
22357;SDS011;11346;50.150;8.150;2023-07-24T06:55:05;5.60;;;2.90;;
22357;SDS011;11346;50.150;8.150;2023-07-24T06:57:33;4.37;;;3.30;;
22357;SDS011;11346;50.150;8.150;2023-07-24T07:00:00;5.83;;;3.50;;
22357;SDS011;11346;50.150;8.150;2023-07-24T07:02:27;4.47;;;3.13;;
22357;SDS011;11346;50.150;8.150;2023-07-24T07:04:54;4.80;;;3.53;;
22357;SDS011;11346;50.150;8.150;2023-07-24T07:07:21;4.23;;;3.27;;
22357;SDS011;11346;50.150;8.150;2023-07-24T07:09:49;4.43;;;3.43;;
22357;SDS011;11346;50.150;8.150;2023-07-24T07:12:16;4.97;;;3.57;;
22357;SDS011;11346;50.150;8.150;2023-07-24T07:14:43;4.47;;;3.33;;
22357;SDS011;11346;50.150;8.150;2023-07-24T07:17:10;4.97;;;3.50;;
22357;SDS011;11346;50.150;8.150;2023-07-24T07:19:37;6.47;;;4.10;;
22357;SDS011;11346;50.150;8.150;2023-07-24T07:22:04;6.90;;;3.63;;
22357;SDS011;11346;50.150;8.150;2023-07-24T07:24:31;8.50;;;3.67;;
22357;SDS011;11346;50.150;8.150;2023-07-24T07:27:00;4.87;;;3.60;;
22357;SDS011;11346;50.150;8.150;2023-07-24T07:29:27;9.13;;;3.60;;
22357;SDS011;11346;50.150;8.150;2023-07-24T07:31:54;5.47;;;3.60;;
22357;SDS011;11346;50.150;8.150;2023-07-24T07:34:21;3.50;;;2.60;;
22357;SDS011;11346;50.150;8.150;2023-07-24T07:36:48;6.37;;;3.77;;
22357;SDS011;11346;50.150;8.150;2023-07-24T07:39:15;5.03;;;3.50;;
22357;SDS011;11346;50.150;8.150;2023-07-24T07:41:42;4.67;;;3.50;;
22357;SDS011;11346;50.150;8.150;2023-07-24T07:44:10;6.67;;;3.53;;
22357;SDS011;11346;50.150;8.150;2023-07-24T07:46:38;6.40;;;3.70;;
22357;SDS011;11346;50.150;8.150;2023-07-24T07:49:05;6.37;;;3.20;;
22357;SDS011;11346;50.150;8.150;2023-07-24T07:51:32;5.23;;;3.67;;
22357;SDS011;11346;50.150;8.150;2023-07-24T07:53:59;6.63;;;3.83;;
22357;SDS011;11346;50.150;8.150;2023-07-24T07:56:26;4.73;;;3.10;;
22357;SDS011;11346;50.150;8.150;2023-07-24T07:58:53;5.03;;;3.60;;
22357;SDS011;11346;50.150;8.150;2023-07-24T08:01:21;5.77;;;3.20;;
22357;SDS011;11346;50.150;8.150;2023-07-24T08:03:48;4.90;;;3.57;;
22357;SDS011;11346;50.150;8.150;2023-07-24T08:06:15;7.17;;;3.23;;
22357;SDS011;11346;50.150;8.150;2023-07-24T08:08:42;3.40;;;2.90;;
22357;SDS011;11346;50.150;8.150;2023-07-24T08:11:09;4.90;;;3.03;;
22357;SDS011;11346;50.150;8.150;2023-07-24T08:13:36;3.47;;;2.80;;
22357;SDS011;11346;50.150;8.150;2023-07-24T08:16:04;6.03;;;3.00;;
22357;SDS011;11346;50.150;8.150;2023-07-24T08:18:32;4.50;;;2.90;;
22357;SDS011;11346;50.150;8.150;2023-07-24T08:20:59;5.20;;;2.77;;
22357;SDS011;11346;50.150;8.150;2023-07-24T08:23:27;6.57;;;3.07;;
22357;SDS011;11346;50.150;8.150;2023-07-24T08:25:54;5.93;;;2.80;;
22357;SDS011;11346;50.150;8.150;2023-07-24T08:28:21;4.97;;;3.10;;
22357;SDS011;11346;50.150;8.150;2023-07-24T08:30:55;5.87;;;3.03;;
22357;SDS011;11346;50.150;8.150;2023-07-24T08:33:23;5.30;;;3.47;;
22357;SDS011;11346;50.150;8.150;2023-07-24T08:35:59;5.93;;;3.03;;
22357;SDS011;11346;50.150;8.150;2023-07-24T08:38:26;7.77;;;3.40;;
22357;SDS011;11346;50.150;8.150;2023-07-24T08:40:59;7.33;;;3.43;;
22357;SDS011;11346;50.150;8.150;2023-07-24T08:43:27;7.47;;;3.10;;
22357;SDS011;11346;50.150;8.150;2023-07-24T08:45:55;5.97;;;3.00;;
22357;SDS011;11346;50.150;8.150;2023-07-24T08:48:22;5.60;;;3.00;;
22357;SDS011;11346;50.150;8.150;2023-07-24T08:50:50;3.33;;;2.77;;
22357;SDS011;11346;50.150;8.150;2023-07-24T08:53:20;3.93;;;2.90;;
22357;SDS011;11346;50.150;8.150;2023-07-24T08:55:48;5.70;;;2.83;;
22357;SDS011;11346;50.150;8.150;2023-07-24T08:58:15;6.37;;;3.50;;
22357;SDS011;11346;50.150;8.150;2023-07-24T09:00:42;5.10;;;2.83;;
22357;SDS011;11346;50.150;8.150;2023-07-24T09:03:09;8.47;;;3.40;;
22357;SDS011;11346;50.150;8.150;2023-07-24T09:05:37;4.23;;;3.07;;
22357;SDS011;11346;50.150;8.150;2023-07-24T09:08:04;4.50;;;3.20;;
22357;SDS011;11346;50.150;8.150;2023-07-24T09:10:32;4.33;;;3.10;;
22357;SDS011;11346;50.150;8.150;2023-07-24T09:12:59;3.43;;;2.80;;
22357;SDS011;11346;50.150;8.150;2023-07-24T09:15:29;4.53;;;3.30;;
22357;SDS011;11346;50.150;8.150;2023-07-24T09:17:56;4.67;;;2.97;;
22357;SDS011;11346;50.150;8.150;2023-07-24T09:20:23;3.43;;;2.70;;
22357;SDS011;11346;50.150;8.150;2023-07-24T09:22:52;5.90;;;3.30;;
22357;SDS011;11346;50.150;8.150;2023-07-24T09:25:29;5.27;;;3.70;;
22357;SDS011;11346;50.150;8.150;2023-07-24T09:27:57;6.20;;;3.33;;
22357;SDS011;11346;50.150;8.150;2023-07-24T09:30:25;5.53;;;3.27;;
22357;SDS011;11346;50.150;8.150;2023-07-24T09:32:52;4.70;;;2.97;;
22357;SDS011;11346;50.150;8.150;2023-07-24T09:35:19;5.07;;;3.20;;
22357;SDS011;11346;50.150;8.150;2023-07-24T09:37:51;4.10;;;3.20;;
22357;SDS011;11346;50.150;8.150;2023-07-24T09:40:27;7.87;;;3.97;;
22357;SDS011;11346;50.150;8.150;2023-07-24T09:42:54;7.47;;;3.33;;
22357;SDS011;11346;50.150;8.150;2023-07-24T09:45:23;5.87;;;3.27;;
22357;SDS011;11346;50.150;8.150;2023-07-24T09:47:50;5.33;;;3.07;;
22357;SDS011;11346;50.150;8.150;2023-07-24T09:50:21;11.03;;;3.30;;
22357;SDS011;11346;50.150;8.150;2023-07-24T09:52:49;7.33;;;2.87;;
22357;SDS011;11346;50.150;8.150;2023-07-24T09:55:18;7.10;;;3.30;;
22357;SDS011;11346;50.150;8.150;2023-07-24T09:57:45;5.50;;;3.33;;
22357;SDS011;11346;50.150;8.150;2023-07-24T10:00:13;4.10;;;3.40;;
22357;SDS011;11346;50.150;8.150;2023-07-24T10:02:42;13.53;;;3.20;;
22357;SDS011;11346;50.150;8.150;2023-07-24T10:05:09;5.73;;;3.20;;
22357;SDS011;11346;50.150;8.150;2023-07-24T10:07:37;5.13;;;3.20;;
22357;SDS011;11346;50.150;8.150;2023-07-24T10:10:05;7.33;;;3.20;;
22357;SDS011;11346;50.150;8.150;2023-07-24T10:12:32;3.20;;;2.90;;
22357;SDS011;11346;50.150;8.150;2023-07-24T10:15:01;3.70;;;3.00;;
22357;SDS011;11346;50.150;8.150;2023-07-24T10:17:34;3.40;;;2.50;;
22357;SDS011;11346;50.150;8.150;2023-07-24T10:20:04;3.73;;;2.50;;
22357;SDS011;11346;50.150;8.150;2023-07-24T10:22:32;7.13;;;3.30;;
22357;SDS011;11346;50.150;8.150;2023-07-24T10:24:59;3.80;;;2.77;;
22357;SDS011;11346;50.150;8.150;2023-07-24T10:27:26;5.63;;;3.67;;
22357;SDS011;11346;50.150;8.150;2023-07-24T10:29:59;4.33;;;3.00;;
22357;SDS011;11346;50.150;8.150;2023-07-24T10:32:27;5.60;;;3.10;;
22357;SDS011;11346;50.150;8.150;2023-07-24T10:34:58;5.90;;;3.43;;
22357;SDS011;11346;50.150;8.150;2023-07-24T10:37:34;5.13;;;3.30;;
22357;SDS011;11346;50.150;8.150;2023-07-24T10:40:01;6.43;;;3.50;;
22357;SDS011;11346;50.150;8.150;2023-07-24T10:42:29;6.83;;;3.00;;
22357;SDS011;11346;50.150;8.150;2023-07-24T10:45:03;4.17;;;2.80;;
22357;SDS011;11346;50.150;8.150;2023-07-24T10:47:30;5.10;;;3.23;;
22357;SDS011;11346;50.150;8.150;2023-07-24T10:49:57;5.53;;;3.37;;
22357;SDS011;11346;50.150;8.150;2023-07-24T10:52:27;3.87;;;3.20;;
22357;SDS011;11346;50.150;8.150;2023-07-24T10:54:55;5.67;;;3.87;;
22357;SDS011;11346;50.150;8.150;2023-07-24T10:57:25;7.47;;;3.13;;
22357;SDS011;11346;50.150;8.150;2023-07-24T10:59:52;4.63;;;3.23;;
22357;SDS011;11346;50.150;8.150;2023-07-24T11:02:19;6.33;;;3.23;;
22357;SDS011;11346;50.150;8.150;2023-07-24T11:04:46;6.40;;;3.50;;
22357;SDS011;11346;50.150;8.150;2023-07-24T11:07:13;6.53;;;3.90;;
22357;SDS011;11346;50.150;8.150;2023-07-24T11:09:41;6.43;;;3.57;;
22357;SDS011;11346;50.150;8.150;2023-07-24T11:12:11;7.57;;;4.10;;
22357;SDS011;11346;50.150;8.150;2023-07-24T11:14:48;5.67;;;3.80;;
22357;SDS011;11346;50.150;8.150;2023-07-24T11:17:15;5.20;;;3.77;;
22357;SDS011;11346;50.150;8.150;2023-07-24T11:19:42;4.87;;;3.87;;
22357;SDS011;11346;50.150;8.150;2023-07-24T11:22:10;6.47;;;3.63;;
22357;SDS011;11346;50.150;8.150;2023-07-24T11:24:43;6.20;;;3.70;;
22357;SDS011;11346;50.150;8.150;2023-07-24T11:27:13;4.03;;;2.97;;
22357;SDS011;11346;50.150;8.150;2023-07-24T11:29:41;5.37;;;3.80;;
22357;SDS011;11346;50.150;8.150;2023-07-24T11:32:08;6.03;;;3.80;;
22357;SDS011;11346;50.150;8.150;2023-07-24T11:34:35;5.53;;;3.80;;
22357;SDS011;11346;50.150;8.150;2023-07-24T11:37:02;4.97;;;3.67;;
22357;SDS011;11346;50.150;8.150;2023-07-24T11:39:30;4.80;;;3.50;;
22357;SDS011;11346;50.150;8.150;2023-07-24T11:41:58;5.83;;;3.50;;
22357;SDS011;11346;50.150;8.150;2023-07-24T11:44:27;7.33;;;3.80;;
22357;SDS011;11346;50.150;8.150;2023-07-24T11:47:00;5.77;;;4.33;;
22357;SDS011;11346;50.150;8.150;2023-07-24T11:49:27;5.50;;;3.63;;
22357;SDS011;11346;50.150;8.150;2023-07-24T11:51:59;6.97;;;3.90;;
22357;SDS011;11346;50.150;8.150;2023-07-24T11:54:26;5.33;;;3.83;;
22357;SDS011;11346;50.150;8.150;2023-07-24T11:56:53;5.07;;;3.60;;
22357;SDS011;11346;50.150;8.150;2023-07-24T11:59:20;6.10;;;3.17;;
22357;SDS011;11346;50.150;8.150;2023-07-24T12:01:48;5.07;;;3.23;;
22357;SDS011;11346;50.150;8.150;2023-07-24T12:04:16;8.60;;;4.10;;
22357;SDS011;11346;50.150;8.150;2023-07-24T12:06:43;5.77;;;3.27;;
22357;SDS011;11346;50.150;8.150;2023-07-24T12:09:10;6.13;;;3.23;;
22357;SDS011;11346;50.150;8.150;2023-07-24T12:11:41;4.43;;;3.30;;
22357;SDS011;11346;50.150;8.150;2023-07-24T12:14:08;5.03;;;3.60;;
22357;SDS011;11346;50.150;8.150;2023-07-24T12:16:35;4.57;;;3.57;;
22357;SDS011;11346;50.150;8.150;2023-07-24T12:19:04;3.73;;;2.87;;
22357;SDS011;11346;50.150;8.150;2023-07-24T12:21:31;5.17;;;2.50;;
22357;SDS011;11346;50.150;8.150;2023-07-24T12:23:58;6.43;;;3.60;;
22357;SDS011;11346;50.150;8.150;2023-07-24T12:26:25;3.63;;;3.23;;
22357;SDS011;11346;50.150;8.150;2023-07-24T12:28:52;4.67;;;3.20;;
22357;SDS011;11346;50.150;8.150;2023-07-24T12:31:20;5.13;;;3.13;;
22357;SDS011;11346;50.150;8.150;2023-07-24T12:33:47;5.63;;;3.40;;
22357;SDS011;11346;50.150;8.150;2023-07-24T12:36:15;4.90;;;3.53;;
22357;SDS011;11346;50.150;8.150;2023-07-24T12:38:43;6.00;;;3.80;;
22357;SDS011;11346;50.150;8.150;2023-07-24T12:41:10;4.37;;;3.30;;
22357;SDS011;11346;50.150;8.150;2023-07-24T12:43:37;3.87;;;3.43;;
22357;SDS011;11346;50.150;8.150;2023-07-24T12:46:04;4.37;;;2.97;;
22357;SDS011;11346;50.150;8.150;2023-07-24T12:48:31;4.87;;;3.80;;
22357;SDS011;11346;50.150;8.150;2023-07-24T12:50:58;8.23;;;3.70;;
22357;SDS011;11346;50.150;8.150;2023-07-24T12:53:27;4.70;;;3.30;;
22357;SDS011;11346;50.150;8.150;2023-07-24T12:55:54;5.73;;;3.27;;
22357;SDS011;11346;50.150;8.150;2023-07-24T12:58:21;4.23;;;3.30;;
22357;SDS011;11346;50.150;8.150;2023-07-24T13:00:48;5.43;;;3.60;;
22357;SDS011;11346;50.150;8.150;2023-07-24T13:03:15;5.40;;;3.50;;
22357;SDS011;11346;50.150;8.150;2023-07-24T13:05:42;6.20;;;3.90;;
22357;SDS011;11346;50.150;8.150;2023-07-24T13:08:10;4.43;;;3.80;;
22357;SDS011;11346;50.150;8.150;2023-07-24T13:10:38;5.93;;;3.20;;
22357;SDS011;11346;50.150;8.150;2023-07-24T13:13:05;4.80;;;3.63;;
22357;SDS011;11346;50.150;8.150;2023-07-24T13:15:34;5.50;;;3.50;;
22357;SDS011;11346;50.150;8.150;2023-07-24T13:18:01;4.87;;;3.43;;
22357;SDS011;11346;50.150;8.150;2023-07-24T13:20:28;4.00;;;3.00;;
22357;SDS011;11346;50.150;8.150;2023-07-24T13:22:55;5.03;;;3.17;;
22357;SDS011;11346;50.150;8.150;2023-07-24T13:25:22;4.63;;;3.30;;
22357;SDS011;11346;50.150;8.150;2023-07-24T13:27:50;3.20;;;2.63;;
22357;SDS011;11346;50.150;8.150;2023-07-24T13:30:18;4.30;;;2.70;;
22357;SDS011;11346;50.150;8.150;2023-07-24T13:32:45;3.33;;;2.70;;
22357;SDS011;11346;50.150;8.150;2023-07-24T13:35:12;4.50;;;2.97;;
22357;SDS011;11346;50.150;8.150;2023-07-24T13:37:40;11.40;;;3.27;;
22357;SDS011;11346;50.150;8.150;2023-07-24T13:40:07;4.07;;;3.00;;
22357;SDS011;11346;50.150;8.150;2023-07-24T13:42:34;5.37;;;3.70;;
22357;SDS011;11346;50.150;8.150;2023-07-24T13:45:03;4.03;;;2.97;;
22357;SDS011;11346;50.150;8.150;2023-07-24T13:47:30;4.10;;;2.70;;
22357;SDS011;11346;50.150;8.150;2023-07-24T13:49:57;3.70;;;2.63;;
22357;SDS011;11346;50.150;8.150;2023-07-24T13:52:28;6.30;;;2.40;;
22357;SDS011;11346;50.150;8.150;2023-07-24T13:54:55;2.40;;;2.20;;
22357;SDS011;11346;50.150;8.150;2023-07-24T13:57:22;3.70;;;2.40;;
22357;SDS011;11346;50.150;8.150;2023-07-24T13:59:49;4.33;;;2.83;;
22357;SDS011;11346;50.150;8.150;2023-07-24T14:02:17;5.00;;;3.00;;
22357;SDS011;11346;50.150;8.150;2023-07-24T14:04:44;4.93;;;3.00;;
22357;SDS011;11346;50.150;8.150;2023-07-24T14:07:11;5.80;;;3.23;;
22357;SDS011;11346;50.150;8.150;2023-07-24T14:09:39;7.20;;;3.47;;
22357;SDS011;11346;50.150;8.150;2023-07-24T14:12:06;4.83;;;3.17;;
22357;SDS011;11346;50.150;8.150;2023-07-24T14:14:33;5.03;;;3.37;;
22357;SDS011;11346;50.150;8.150;2023-07-24T14:17:00;6.97;;;3.37;;
22357;SDS011;11346;50.150;8.150;2023-07-24T14:19:28;3.97;;;2.93;;
22357;SDS011;11346;50.150;8.150;2023-07-24T14:21:55;7.03;;;3.33;;
22357;SDS011;11346;50.150;8.150;2023-07-24T14:24:23;2.97;;;2.67;;
22357;SDS011;11346;50.150;8.150;2023-07-24T14:26:50;5.30;;;3.30;;
22357;SDS011;11346;50.150;8.150;2023-07-24T14:29:17;3.27;;;2.43;;
22357;SDS011;11346;50.150;8.150;2023-07-24T14:31:44;4.63;;;2.63;;
22357;SDS011;11346;50.150;8.150;2023-07-24T14:34:11;2.03;;;1.90;;
22357;SDS011;11346;50.150;8.150;2023-07-24T14:36:39;3.30;;;2.00;;
22357;SDS011;11346;50.150;8.150;2023-07-24T14:39:06;2.13;;;1.90;;
22357;SDS011;11346;50.150;8.150;2023-07-24T14:41:33;2.27;;;1.83;;
22357;SDS011;11346;50.150;8.150;2023-07-24T14:44:00;4.10;;;1.63;;
22357;SDS011;11346;50.150;8.150;2023-07-24T14:46:27;2.30;;;1.50;;
22357;SDS011;11346;50.150;8.150;2023-07-24T14:48:54;1.70;;;1.60;;
22357;SDS011;11346;50.150;8.150;2023-07-24T14:51:21;1.63;;;1.43;;